Vremea acum in Brăila - Romania

Vrei sa afli care e starea vremii acum in Braila - Romania? Dorim sa iti furnizam starea vremii pentru Braila - Romania. Starea vremii Braila - Romania pentru astazi.

Vremea acum in Brăila

Temperatura: 7.1 °C

Este: Ceata
Se simte ca: 5.2 °C
Innorat: 0 %
Precipitatii: 0 %
Presiune atmosferica: 1017 hPa
Umiditate: 100%
Vizibilitate: 0.4 km
Vantul bate din S cu 10.1 km/h

Evolutia vremii in Brăila pe ore

Ora: 03:00
Senin
Temperatura: 10.6°C
Sansa de precipitatii: 0%
Ora Descriere Temp Se simte Precipitatii Umiditate Vant
00:00Senin12.1°11°0%62%SSE 11.5 KM/H
01:00Senin11.6°10.5°0%65%S 10.4 KM/H
02:00Ceata7.1°9.9°0%100%S 10.1 KM/H
03:00Senin10.6°9.3°0%72%S 10.1 KM/H
04:00Senin10.1°8.6°0%75%S 10.8 KM/H
05:00Senin9.7°8.4°0%78%S 9.7 KM/H
06:00Senin9.5°0%81%SSE 10.1 KM/H
07:00Senin10.6°9.4°0%77%SSE 9.7 KM/H
08:00Senin13°11.8°0%67%SSE 12.6 KM/H
09:00Senin15.2°15.2°0%58%SSE 14.4 KM/H
10:00Senin17.3°17.3°0%49%SSE 15.8 KM/H
11:00Senin19.1°19.1°0%43%SSE 16.6 KM/H
12:00Senin20.7°20.7°0%39%SSE 17.6 KM/H
13:00Senin21.7°21.7°0%36%SSE 18.4 KM/H
14:00Senin22.2°23.8°0%36%SSE 19.1 KM/H
15:00Senin22.3°23.9°0%36%SSE 19.8 KM/H
16:00Senin22.4°24°0%37%SSE 20.2 KM/H
17:00Senin21.7°21.7°0%39%SSE 20.2 KM/H
18:00Senin20.8°20.9°0%42%SSE 21.2 KM/H
19:00Senin19°19°0%50%SSE 21.6 KM/H
20:00Senin16.3°16.3°0%59%SSE 19.8 KM/H
21:00Senin14.4°13.1°0%65%SSE 17.3 KM/H
22:00Senin13.2°11.8°0%69%SSE 16.2 KM/H
23:00Senin12.7°11.2°0%70%SSE 15.5 KM/H




tutorials